AirNav   ProFlight Series 2 Aviation Headset
 
 939 users online  

06PN Schiavoni Heliport
Harrisburg, Pennsylvania, USA

GOING TO HARRISBURG?


FAA INFORMATION EFFECTIVE 18 JUNE 2020

Location

FAA Identifier: 06PN
Lat/Long: 40-22-57.8400N 076-46-21.1200W
40-22.964000N 076-46.352000W
40.3827333,-76.7725333
(estimated)
Elevation: 727 ft. / 222 m (estimated)
From city: 8 miles SW of HARRISBURG, PA
Time zone: UTC -4 (UTC -5 during Standard Time)
Zip code: 17112

Heliport Operations

Heliport use: Private use. Permission required prior to landing
Activation date: 11/2008
Control tower: no
ARTCC: NEW YORK CENTER
FSS: WILLIAMSPORT FLIGHT SERVICE STATION
Attendance: IREG
Wind indicator: yes
Segmented circle: no
Lights: ACTVT PERIMETER LIGHTS - 122.9

Heliport Communications

WX ASOS at MUI (10 nm E): 124.175 (717-861-2536)
WX ASOS at CXY (11 nm S): PHONE 717-770-0880
WX ASOS at MDT (11 nm S): 118.8 (717-944-1372)

Nearby radio navigation aids

VOR radial/distance  VOR name  Freq  Var
RAVr229/12.9RAVINE VORTAC114.6011W
HARr080/14.4HARRISBURG VORTAC112.5010W
SEGr176/25.0SELINSGROVE VOR/DME110.4008W
LRPr315/27.1LANCASTER VOR/DME117.3009W
MIPr196/38.7MILTON VORTAC109.2009W

 
NDB name  Hdg/Dist  Freq  Var  ID
ENOLA047/10.120411WMD -- -..
BELLGROVE262/10.532810WBZJ -... --.. .---

Heliport Services

Runway Information

Helipad H2

Dimensions: 80 x 80 ft. / 24 x 24 m
Surface: asphalt
Traffic pattern: leftleft

Helipad H1

Dimensions: 15 x 15 ft. / 5 x 5 m
Surface: concrete
Traffic pattern: leftleft

Heliport Ownership and Management from official FAA records

Ownership: Privately-owned
Owner: DANIEL SCHIAVONI
1372 NORTHVIEW DRIVE
HARRISBURG, PA 17112
Phone 717-554-3014
Manager: DANIEL SCHIAVONI
1372 NORTHVIEW LANE
HARRISBURG, PA 17112
Phone 717-554-3014

Additional Remarks

ALL ACFT MUST MONITOR AND BROADCAST INTENTIONS ON FREQ 122.9.
AVOID PLINE WEST AND SW OF H1 AND H2 PADS.
FOR CD CTC HARRISBURG APCH AT 800-932-0712.

Instrument Procedures

There are no published instrument procedures at 06PN.

Some nearby airports with instrument procedures:

KMUI - Muir Army Airfield (Fort Indiantown Gap) (10 nm E)
KCXY - Capital City Airport (11 nm S)
58N - Reigle Field Airport (11 nm SE)
KMDT - Harrisburg International Airport (11 nm S)
74N - Bendigo Airport (14 nm NE)
N71 - Donegal Springs Airpark (20 nm SE)
 
Loc | Ops | Rwys | IFR | FBO | Links
Com | Nav | Svcs | Stats | Notes
Aerial photo
No photo
 
Sectional chart

 
Airport distance calculator
Flying to Schiavoni Heliport? Find the distance to fly.

From to 06PN

Sunrise and sunset
Times for 14-Jul-2020
 Local
(UTC-4)
 Zulu
(UTC)
Morning civil twilight05:1909:19
Sunrise05:5109:51
Sunset20:3500:35
Evening civil twilight21:0701:07

Current date and time
Zulu (UTC)  15-Jul-2020 02:43:18
Local (UTC-4)  14-Jul-2020 22:43:18
 
METAR
KMUI 
10nm E 
150156Z 00000KT 10SM FEW100 SCT200 20/16 A3007 RMK AO2A SLP183 T02040164
KCXY 
11nm S 
150156Z AUTO 00000KT 10SM CLR 24/14 A3007 RMK AO2 SLP179 T02390144 $
KMDT 
11nm S 
150156Z 00000KT 10SM FEW090 FEW250 25/16 A3006 RMK AO2 SLP177 T02500161
TAF
KMUI 
10nm E 
141900Z 1419/1601 VRB06KT 9999 SCT050 QNH2999INS BECMG 1515/1516 VRB06KT 9999 BKN050 QNH2999INS TX29/1421Z TN19/1511Z LAST NO AMDS AFT 1505 NEXT 1511
KMDT 
11nm S 
142115Z 1421/1518 04005KT P6SM SCT070 FM142300 30005KT P6SM SKC FM151200 35004KT P6SM SKC
NOTAMs
Click for the latest NOTAMs
NOTAMs are issued by the DoD/FAA and will open in a separate window not controlled by AirNav.

 

 
 

Would you like to see your business listed on this page?

 If your business provides an interesting product or service to pilots, flight crews, aircraft, or users of the Schiavoni Heliport, you should consider listing it here.  To start the listing process, click on the button below
 
Add a business
 

Other Pages about Schiavoni Heliport

Update a link
 
Copyright © AirNav, LLC. All rights reserved. Privacy Policy  Contact